Time;durP1;ratioP1;P1;durP2;ratioP2;P2;SDS_P1;SDS_P2;PMS_P1;PMS_P2;Temp;Humidity;BMP_temperature;BMP_pressure;BME280_temperature;BME280_humidity;BME280_pressure;Samples;Min_cycle;Max_cycle;Signal;HPM_P1;HPM_P2
2023/02/19 00:00:29;;;;;;;34.22;13.63;;;10.40;99.90;;;;;;6248766;22;20004;-87
2023/02/19 00:02:56;;;;;;;34.28;14.02;;;10.40;99.90;;;;;;6276241;22;20019;-86
2023/02/19 00:05:22;;;;;;;42.08;15.50;;;10.40;99.90;;;;;;6248716;22;19999;-86
2023/02/19 00:07:48;;;;;;;30.27;13.25;;;10.30;99.90;;;;;;6248262;22;20008;-86
2023/02/19 00:10:13;;;;;;;36.08;14.32;;;10.30;99.90;;;;;;6248807;22;20035;-86
2023/02/19 00:12:39;;;;;;;30.20;14.02;;;10.30;99.90;;;;;;6248801;22;20035;-86
2023/02/19 00:15:04;;;;;;;32.58;14.00;;;10.30;99.90;;;;;;6248553;22;20008;-87
2023/02/19 00:17:31;;;;;;;37.20;15.05;;;10.30;99.90;;;;;;6248346;22;20079;-86
2023/02/19 00:19:56;;;;;;;36.05;14.70;;;10.30;99.90;;;;;;6249008;22;20004;-86
2023/02/19 00:22:22;;;;;;;34.70;14.57;;;10.20;99.90;;;;;;6247659;22;20011;-86
2023/02/19 00:24:48;;;;;;;32.83;14.55;;;10.20;99.90;;;;;;6248616;22;20330;-86
2023/02/19 00:27:14;;;;;;;33.78;15.25;;;10.20;99.90;;;;;;6248300;22;20003;-86
2023/02/19 00:29:40;;;;;;;33.17;15.35;;;10.10;99.90;;;;;;6248342;22;20022;-86
2023/02/19 00:32:05;;;;;;;37.33;15.00;;;10.10;99.90;;;;;;6248206;22;20007;-86
2023/02/19 00:34:31;;;;;;;33.92;15.30;;;10.00;99.90;;;;;;6276116;22;20504;-86
2023/02/19 00:36:56;;;;;;;28.83;13.45;;;10.00;99.90;;;;;;6248413;22;20049;-87
2023/02/19 00:39:22;;;;;;;29.23;12.40;;;10.00;99.90;;;;;;6248478;22;20314;-86
2023/02/19 00:41:47;;;;;;;32.20;12.05;;;10.00;99.90;;;;;;6248636;22;20092;-86
2023/02/19 00:44:14;;;;;;;33.95;14.43;;;9.90;99.90;;;;;;6248532;22;20388;-87
2023/02/19 00:46:41;;;;;;;28.45;12.90;;;9.90;99.90;;;;;;6247710;22;20449;-86
2023/02/19 00:49:10;;;;;;;26.65;13.68;;;9.90;99.90;;;;;;6248292;22;20011;-87
2023/02/19 00:51:37;;;;;;;32.42;15.40;;;9.90;99.90;;;;;;6248198;22;20087;-86
2023/02/19 00:54:04;;;;;;;36.75;15.38;;;9.80;99.90;;;;;;6247608;22;20088;-86
2023/02/19 00:56:30;;;;;;;32.03;15.73;;;9.80;99.90;;;;;;6248335;22;20010;-86
2023/02/19 00:58:55;;;;;;;39.85;16.85;;;9.80;99.90;;;;;;6248432;22;19999;-86
2023/02/19 01:01:21;;;;;;;42.80;18.70;;;9.70;99.90;;;;;;6247674;22;20151;-86
2023/02/19 01:03:47;;;;;;;39.13;17.95;;;9.70;99.90;;;;;;6249749;22;20047;-87
2023/02/19 01:06:15;;;;;;;40.38;16.08;;;9.70;99.90;;;;;;6248700;22;20116;-86
2023/02/19 01:08:41;;;;;;;41.63;17.00;;;9.70;99.90;;;;;;6248279;22;20433;-86
2023/02/19 01:11:08;;;;;;;45.80;16.65;;;9.70;99.90;;;;;;6247846;22;19996;-86
2023/02/19 01:13:34;;;;;;;35.92;13.82;;;9.70;99.90;;;;;;6248211;22;20464;-86
2023/02/19 01:16:09;;;;;;;36.55;12.77;;;9.70;99.90;;;;;;6247708;22;20000;-86
2023/02/19 01:18:35;;;;;;;34.97;12.98;;;9.70;99.90;;;;;;6247693;22;20015;-86
2023/02/19 01:21:06;;;;;;;45.03;13.18;;;9.70;99.90;;;;;;6246258;22;20004;-86
2023/02/19 01:23:35;;;;;;;34.17;11.48;;;9.70;99.90;;;;;;6247188;22;20011;-86
2023/02/19 01:26:06;;;;;;;36.45;11.77;;;9.70;99.90;;;;;;6247373;22;20004;-86
2023/02/19 01:28:32;;;;;;;36.97;12.45;;;9.70;99.90;;;;;;6247504;22;20046;-86
2023/02/19 01:31:06;;;;;;;31.38;11.10;;;9.80;99.90;;;;;;6248308;22;20072;-87
2023/02/19 01:33:32;;;;;;;25.67;10.70;;;9.80;99.90;;;;;;6274923;22;20004;-86
2023/02/19 01:35:58;;;;;;;36.35;13.07;;;9.70;99.90;;;;;;6275129;22;20418;-87
2023/02/19 01:38:24;;;;;;;32.95;11.18;;;9.80;99.90;;;;;;6247873;22;20018;-85
2023/02/19 01:40:57;;;;;;;34.33;12.18;;;9.70;99.90;;;;;;6247792;22;20051;-85
2023/02/19 01:43:23;;;;;;;38.35;11.27;;;9.70;99.90;;;;;;6247028;22;20015;-87
2023/02/19 01:45:49;;;;;;;34.53;10.68;;;9.70;99.90;;;;;;6247957;22;20078;-86
2023/02/19 01:48:22;;;;;;;31.77;10.57;;;9.70;99.90;;;;;;6247460;22;20000;-86
2023/02/19 01:51:10;;;;;;;36.13;10.13;;;9.80;99.90;;;;;;6247983;22;20376;-87
2023/02/19 01:53:42;;;;;;;33.15;9.35;;;9.70;99.90;;;;;;6247666;22;20003;-86
2023/02/19 01:56:09;;;;;;;31.45;8.30;;;9.70;99.90;;;;;;6247252;22;20003;-86
2023/02/19 01:58:36;;;;;;;33.00;8.52;;;9.70;99.90;;;;;;6247843;22;20096;-86
2023/02/19 02:01:04;;;;;;;29.30;8.48;;;9.60;99.90;;;;;;6247428;22;20034;-87
2023/02/19 02:03:30;;;;;;;27.25;8.32;;;9.60;99.90;;;;;;6247836;22;20055;-86
2023/02/19 02:06:18;;;;;;;33.10;8.98;;;9.60;99.90;;;;;;6247356;22;20086;-87
2023/02/19 02:11:28;;;;;;;28.65;7.88;;;9.60;99.90;;;;;;6274796;22;20384;-87
2023/02/19 02:13:54;;;;;;;22.80;6.95;;;9.50;99.90;;;;;;6247171;22;20004;-87
2023/02/19 02:16:31;;;;;;;30.50;9.18;;;9.40;99.90;;;;;;6247149;22;20069;-87
2023/02/19 02:19:08;;;;;;;28.05;7.65;;;9.40;99.90;;;;;;6248024;22;20015;-86
2023/02/19 02:21:48;;;;;;;26.60;7.88;;;9.30;99.90;;;;;;6247812;22;20004;-87
2023/02/19 02:25:08;;;;;;;25.17;7.63;;;9.30;99.90;;;;;;6274507;22;20012;-87
2023/02/19 02:28:06;;;;;;;38.05;8.35;;;9.30;99.90;;;;;;6150987;23;20013;-86
2023/02/19 02:30:40;;;;;;;36.10;8.43;;;9.30;99.90;;;;;;6247135;22;20501;-86
2023/02/19 02:33:31;;;;;;;28.33;6.85;;;9.30;99.90;;;;;;6246719;22;20004;-87
2023/02/19 02:36:04;;;;;;;28.60;6.72;;;9.30;99.90;;;;;;6247861;22;20003;-86
2023/02/19 02:38:33;;;;;;;31.48;6.22;;;9.30;99.90;;;;;;6246322;22;20038;-87
2023/02/19 02:40:59;;;;;;;29.65;6.40;;;9.30;99.90;;;;;;6246592;22;20044;-86
2023/02/19 02:43:25;;;;;;;26.67;5.35;;;9.20;99.90;;;;;;6274008;22;20113;-86
2023/02/19 02:45:51;;;;;;;26.75;5.38;;;9.20;99.90;;;;;;6273875;22;19999;-87
2023/02/19 02:48:25;;;;;;;25.85;5.05;;;9.20;99.90;;;;;;6247069;22;20003;-86
2023/02/19 02:51:10;;;;;;;23.08;4.65;;;9.20;99.90;;;;;;6247082;22;20007;-86
2023/02/19 02:56:37;;;;;;;15.27;3.85;;;9.20;99.90;;;;;;6273478;22;20018;-86
2023/02/19 02:59:07;;;;;;;22.23;4.18;;;9.20;99.90;;;;;;6273887;22;20067;-86
2023/02/19 03:02:10;;;;;;;24.88;4.97;;;9.20;99.90;;;;;;6247542;22;20008;-85
2023/02/19 03:07:55;;;;;;;29.30;5.57;;;9.20;99.90;;;;;;6273637;22;20031;-85
2023/02/19 03:10:55;;;;;;;22.70;4.57;;;9.10;99.90;;;;;;6246369;22;20010;-85
2023/02/19 03:19:19;;;;;;;31.13;5.72;;;9.10;99.90;;;;;;6272385;22;20476;-84
2023/02/19 03:21:52;;;;;;;19.92;4.38;;;9.10;99.90;;;;;;6247499;22;20004;-86
2023/02/19 03:27:10;;;;;;;23.83;4.20;;;9.10;99.90;;;;;;6275683;22;20376;-86
2023/02/19 03:29:38;;;;;;;33.83;6.35;;;9.10;99.90;;;;;;6248614;22;20307;-86
2023/02/19 03:32:11;;;;;;;17.05;4.10;;;9.10;99.90;;;;;;6275798;22;20010;-85
2023/02/19 03:34:40;;;;;;;;;;;9.10;99.90;;;;;;6249807;22;20000;-85
2023/02/19 03:37:12;;;;;;;26.88;4.82;;;9.10;99.90;;;;;;6248564;22;19949;-85
2023/02/19 03:39:43;;;;;;;22.95;4.45;;;9.10;99.90;;;;;;6276540;22;20002;-86
2023/02/19 03:42:18;;;;;;;28.80;4.90;;;9.10;99.90;;;;;;6249038;22;20464;-86
2023/02/19 03:45:08;;;;;;;31.98;4.50;;;9.10;99.90;;;;;;6249618;22;20091;-86
2023/02/19 03:47:48;;;;;;;18.10;4.15;;;9.10;99.90;;;;;;6249529;22;20052;-86
2023/02/19 03:50:23;;;;;;;25.17;4.10;;;9.10;99.90;;;;;;6249391;22;20055;-86
2023/02/19 03:53:07;;;;;;;15.55;3.33;;;9.10;99.90;;;;;;6248808;22;20480;-85
2023/02/19 03:55:53;;;;;;;18.23;4.10;;;9.10;99.90;;;;;;6249198;22;20000;-86
2023/02/19 03:58:51;;;;;;;30.45;4.97;;;9.20;99.90;;;;;;6248957;22;20002;-86
2023/02/19 04:01:26;;;;;;;20.83;5.00;;;9.20;99.90;;;;;;6274294;22;20004;-86
2023/02/19 04:04:07;;;;;;;27.40;5.75;;;9.20;99.90;;;;;;6276502;22;20004;-86
2023/02/19 04:06:36;;;;;;;20.98;4.78;;;9.30;99.90;;;;;;6249356;22;20500;-86
2023/02/19 04:09:05;;;;;;;23.00;5.43;;;9.20;99.90;;;;;;6248638;22;20502;-86
2023/02/19 04:11:32;;;;;;;16.33;4.38;;;9.30;99.90;;;;;;6248848;22;20073;-87
2023/02/19 04:14:06;;;;;;;19.35;4.07;;;9.30;99.90;;;;;;6276099;22;20011;-86
2023/02/19 04:16:34;;;;;;;24.05;5.03;;;9.30;99.90;;;;;;6249147;22;20438;-86
2023/02/19 04:19:09;;;;;;;16.27;4.90;;;9.30;99.90;;;;;;6248958;22;20396;-86
2023/02/19 04:21:36;;;;;;;20.50;5.28;;;9.30;99.90;;;;;;6249152;22;20027;-86
2023/02/19 04:24:10;;;;;;;18.67;5.35;;;9.40;99.90;;;;;;6248059;22;20012;-86
2023/02/19 04:26:36;;;;;;;19.85;4.88;;;9.30;99.90;;;;;;6249024;22;20026;-86
2023/02/19 04:29:02;;;;;;;23.25;5.53;;;9.30;99.90;;;;;;6248037;22;20421;-86
2023/02/19 04:31:30;;;;;;;12.32;5.05;;;9.40;99.90;;;;;;6248758;22;20004;-86
2023/02/19 04:33:55;;;;;;;17.45;4.95;;;9.40;99.90;;;;;;6248876;22;20000;-87
2023/02/19 04:36:21;;;;;;;18.35;5.97;;;9.30;99.90;;;;;;6247586;22;20058;-86
2023/02/19 04:38:46;;;;;;;16.42;4.70;;;9.30;99.90;;;;;;6248630;22;20011;-86
2023/02/19 04:41:12;;;;;;;13.13;4.43;;;9.30;99.90;;;;;;6248823;22;20004;-86
2023/02/19 04:43:37;;;;;;;13.65;4.88;;;9.30;99.90;;;;;;6248991;22;20015;-86
2023/02/19 04:46:03;;;;;;;16.60;5.32;;;9.30;99.90;;;;;;6248030;22;20084;-86
2023/02/19 04:48:29;;;;;;;14.82;4.70;;;9.20;99.90;;;;;;6249083;22;20445;-86
2023/02/19 04:50:54;;;;;;;17.45;5.38;;;9.20;99.90;;;;;;6275637;22;20027;-86
2023/02/19 04:53:20;;;;;;;18.48;6.40;;;9.20;99.90;;;;;;6248489;22;20015;-87
2023/02/19 04:55:46;;;;;;;17.40;6.05;;;9.20;99.90;;;;;;6248875;22;20156;-86
2023/02/19 04:58:12;;;;;;;18.80;6.25;;;9.20;99.90;;;;;;6248652;22;20015;-87
2023/02/19 05:00:38;;;;;;;15.57;5.47;;;9.20;99.90;;;;;;6249239;22;20448;-87
2023/02/19 05:03:03;;;;;;;17.48;4.68;;;9.10;99.90;;;;;;6248663;22;20445;-87
2023/02/19 05:05:29;;;;;;;17.65;5.15;;;9.10;99.90;;;;;;6247920;22;20166;-87
2023/02/19 05:07:54;;;;;;;16.98;4.65;;;9.10;99.90;;;;;;6248662;22;20062;-87
2023/02/19 05:10:20;;;;;;;13.40;5.22;;;9.10;99.90;;;;;;6248121;22;20003;-87
2023/02/19 05:12:45;;;;;;;15.77;5.25;;;9.10;99.90;;;;;;6248724;22;20022;-87
2023/02/19 05:15:11;;;;;;;17.27;5.90;;;9.10;99.90;;;;;;6248504;22;20004;-87
2023/02/19 05:17:37;;;;;;;19.08;4.82;;;9.10;99.90;;;;;;6244347;22;20007;-87
2023/02/19 05:20:03;;;;;;;23.02;5.60;;;9.10;99.90;;;;;;6245522;22;20012;-87
2023/02/19 05:22:29;;;;;;;20.33;5.05;;;9.10;99.90;;;;;;6245689;22;20342;-87
2023/02/19 05:24:54;;;;;;;19.13;5.38;;;9.10;99.90;;;;;;6246501;22;20007;-87
2023/02/19 05:27:20;;;;;;;19.60;5.45;;;9.10;99.90;;;;;;6246652;22;20018;-88
2023/02/19 05:29:45;;;;;;;15.65;4.30;;;9.10;99.90;;;;;;6246941;22;20011;-88
2023/02/19 05:32:11;;;;;;;10.55;4.40;;;9.10;99.90;;;;;;6245648;22;20014;-87
2023/02/19 05:34:36;;;;;;;17.90;4.72;;;9.00;99.90;;;;;;6246763;22;19999;-87
2023/02/19 05:37:02;;;;;;;16.13;4.07;;;9.00;99.90;;;;;;6248244;22;20007;-88
2023/02/19 05:39:27;;;;;;;16.38;4.72;;;9.00;99.90;;;;;;6246212;22;20364;-87
2023/02/19 05:41:53;;;;;;;13.23;4.15;;;9.00;99.90;;;;;;6248752;22;20034;-88
2023/02/19 05:44:18;;;;;;;16.15;5.45;;;8.90;99.90;;;;;;6247779;22;20008;-87
2023/02/19 05:46:44;;;;;;;17.02;4.40;;;8.90;99.90;;;;;;6247088;22;20011;-87
2023/02/19 05:49:09;;;;;;;20.50;4.60;;;8.90;99.90;;;;;;6247842;22;20004;-87
2023/02/19 05:51:35;;;;;;;18.98;4.93;;;8.90;99.90;;;;;;6249751;22;20003;-87
2023/02/19 05:54:01;;;;;;;16.30;4.90;;;8.90;99.90;;;;;;6248615;22;20596;-87
2023/02/19 05:56:38;;;;;;;18.00;4.88;;;8.90;99.90;;;;;;6249310;22;20003;-87
2023/02/19 05:59:07;;;;;;;20.05;5.20;;;8.90;99.90;;;;;;6248163;22;20019;-87
2023/02/19 06:01:33;;;;;;;21.02;4.97;;;8.90;99.90;;;;;;6247579;22;20003;-87
2023/02/19 06:03:59;;;;;;;19.60;5.10;;;8.90;99.90;;;;;;6247851;22;20046;-85
2023/02/19 06:06:25;;;;;;;19.63;5.07;;;8.90;99.90;;;;;;6247359;22;20000;-87
2023/02/19 06:08:51;;;;;;;16.10;4.65;;;8.90;99.90;;;;;;6246665;22;20425;-87
2023/02/19 06:11:17;;;;;;;22.27;6.05;;;8.90;99.90;;;;;;6272621;22;20007;-86
2023/02/19 06:13:43;;;;;;;17.10;4.90;;;8.90;99.90;;;;;;6247293;22;20012;-86
2023/02/19 06:16:09;;;;;;;16.17;6.28;;;8.90;99.90;;;;;;6245980;22;20027;-87
2023/02/19 06:18:35;;;;;;;13.85;4.95;;;8.90;99.90;;;;;;6273454;22;20091;-87
2023/02/19 06:21:05;;;;;;;16.13;5.85;;;9.00;99.90;;;;;;6247786;22;19999;-87
2023/02/19 06:23:31;;;;;;;18.83;5.97;;;9.00;99.90;;;;;;6247262;22;20012;-86
2023/02/19 06:26:17;;;;;;;23.10;5.95;;;9.00;99.90;;;;;;6273972;22;20057;-86
2023/02/19 06:28:43;;;;;;;16.42;5.10;;;9.00;99.90;;;;;;6247150;22;20071;-86
2023/02/19 06:31:09;;;;;;;16.23;6.25;;;9.10;99.90;;;;;;6274380;22;19999;-86
2023/02/19 06:33:37;;;;;;;22.25;5.90;;;9.00;99.90;;;;;;6275559;22;20070;-86
2023/02/19 06:36:03;;;;;;;11.88;4.82;;;9.10;99.90;;;;;;6276174;22;20070;-87
2023/02/19 06:38:30;;;;;;;27.13;7.57;;;9.10;99.90;;;;;;6248324;22;20042;-86
2023/02/19 06:41:00;;;;;;;16.15;5.28;;;9.10;99.90;;;;;;6246766;22;20007;-87
2023/02/19 06:43:26;;;;;;;22.52;6.35;;;9.10;99.90;;;;;;6276849;22;20446;-86
2023/02/19 06:45:52;;;;;;;16.92;4.90;;;9.10;99.90;;;;;;6277197;22;20003;-86
2023/02/19 06:48:17;;;;;;;13.43;5.25;;;9.10;99.90;;;;;;6245300;22;20003;-87
2023/02/19 06:50:43;;;;;;;18.38;5.93;;;9.10;99.90;;;;;;6272693;22;20003;-86
2023/02/19 06:53:10;;;;;;;24.27;6.80;;;9.10;99.90;;;;;;6247958;22;20059;-86
2023/02/19 06:55:37;;;;;;;16.88;5.20;;;9.10;99.90;;;;;;6274054;22;20460;-87
2023/02/19 06:58:03;;;;;;;16.65;5.57;;;9.10;99.90;;;;;;6247178;22;20004;-86
2023/02/19 07:00:28;;;;;;;19.98;5.80;;;9.10;99.90;;;;;;6247662;22;20004;-86
2023/02/19 07:02:55;;;;;;;16.05;6.45;;;9.10;99.90;;;;;;6246676;22;20008;-86
2023/02/19 07:05:22;;;;;;;12.32;5.28;;;9.10;99.90;;;;;;6246633;22;20012;-87
2023/02/19 07:07:48;;;;;;;16.95;5.13;;;9.10;99.90;;;;;;6274463;22;19999;-87
2023/02/19 07:10:13;;;;;;;14.07;5.75;;;9.10;99.90;;;;;;6247117;22;20015;-87
2023/02/19 07:12:39;;;;;;;16.33;5.95;;;9.10;99.90;;;;;;6274424;22;20345;-87
2023/02/19 07:15:05;;;;;;;14.13;5.80;;;9.10;99.90;;;;;;6246427;22;20059;-87
2023/02/19 07:17:30;;;;;;;16.70;6.38;;;9.10;99.90;;;;;;6246538;22;20007;-87
2023/02/19 07:19:56;;;;;;;18.70;5.93;;;9.10;99.90;;;;;;6249988;22;20007;-87
2023/02/19 07:22:21;;;;;;;14.75;5.50;;;9.10;99.90;;;;;;6249592;22;20054;-87
2023/02/19 07:24:47;;;;;;;18.02;5.82;;;9.10;99.90;;;;;;6249643;22;20090;-87
2023/02/19 07:27:12;;;;;;;16.65;5.57;;;9.10;99.90;;;;;;6249561;22;20343;-87
2023/02/19 07:29:38;;;;;;;16.73;5.95;;;9.10;99.90;;;;;;6248628;22;20000;-88
2023/02/19 07:32:03;;;;;;;20.55;6.03;;;9.10;99.90;;;;;;6249835;22;20008;-87
2023/02/19 07:34:29;;;;;;;13.63;5.47;;;9.10;99.90;;;;;;6250489;22;20028;-87
2023/02/19 07:36:54;;;;;;;15.48;5.55;;;9.10;99.90;;;;;;6250868;22;20031;-88
2023/02/19 07:39:20;;;;;;;13.68;5.28;;;8.90;99.90;;;;;;6250310;22;20469;-88
2023/02/19 07:41:45;;;;;;;10.25;5.38;;;8.80;99.90;;;;;;6251416;22;20438;-88
2023/02/19 07:44:15;;;;;;;16.70;6.05;;;8.80;99.90;;;;;;6249621;22;20291;-87
2023/02/19 07:46:41;;;;;;;16.88;5.57;;;8.70;99.90;;;;;;6249476;22;20004;-87
2023/02/19 07:49:06;;;;;;;12.60;5.30;;;8.70;99.90;;;;;;6247617;22;20004;-86
2023/02/19 07:51:32;;;;;;;17.95;6.70;;;8.70;99.90;;;;;;6248677;22;20054;-86
2023/02/19 07:53:57;;;;;;;15.63;6.55;;;8.70;99.90;;;;;;6246969;22;20004;-86
2023/02/19 07:56:23;;;;;;;11.98;5.32;;;8.70;99.90;;;;;;6247221;22;20010;-86
2023/02/19 07:58:49;;;;;;;14.23;6.25;;;8.70;99.90;;;;;;6247739;22;20326;-86
2023/02/19 08:04:07;;;;;;;15.47;6.63;;;8.70;99.90;;;;;;6275119;22;20019;-86
2023/02/19 08:06:32;;;;;;;13.90;5.63;;;8.70;99.90;;;;;;6247698;22;20000;-86
2023/02/19 08:08:58;;;;;;;14.40;6.82;;;8.70;99.90;;;;;;6247839;22;20011;-87
2023/02/19 08:14:07;;;;;;;19.83;8.23;;;8.70;99.90;;;;;;6277859;22;20095;-86
2023/02/19 08:16:33;;;;;;;24.80;8.07;;;8.80;99.90;;;;;;6249871;22;20003;-87
2023/02/19 08:18:59;;;;;;;21.98;7.32;;;8.80;99.90;;;;;;6249051;22;20027;-86
2023/02/19 08:21:24;;;;;;;16.98;6.82;;;8.80;99.90;;;;;;6248211;22;20445;-86
2023/02/19 08:23:50;;;;;;;13.32;6.35;;;8.80;99.90;;;;;;6247584;22;20012;-86
2023/02/19 08:26:15;;;;;;;15.25;6.25;;;8.80;99.90;;;;;;6273515;22;20435;-86
2023/02/19 08:28:41;;;;;;;20.45;7.55;;;8.90;99.90;;;;;;6274167;22;20000;-86
2023/02/19 08:31:09;;;;;;;16.10;6.50;;;8.90;99.90;;;;;;6274075;22;19992;-86
2023/02/19 08:33:35;;;;;;;17.90;7.13;;;9.00;99.90;;;;;;6249850;22;20035;-85
2023/02/19 08:36:03;;;;;;;25.15;6.72;;;9.00;99.90;;;;;;6250207;22;20028;-85
2023/02/19 08:38:29;;;;;;;17.85;6.53;;;9.00;99.90;;;;;;6276406;22;19995;-86
2023/02/19 08:40:55;;;;;;;16.23;7.10;;;9.00;99.90;;;;;;6277806;22;20467;-86
2023/02/19 08:43:20;;;;;;;19.50;5.93;;;9.10;99.90;;;;;;6243620;22;20026;-86
2023/02/19 08:45:46;;;;;;;21.25;6.90;;;9.20;99.90;;;;;;6244468;22;20025;-86
2023/02/19 08:48:12;;;;;;;14.82;6.00;;;9.20;99.90;;;;;;6249041;22;20065;-86
2023/02/19 08:50:38;;;;;;;14.43;6.30;;;9.20;99.90;;;;;;6247317;22;20037;-86
2023/02/19 08:53:05;;;;;;;15.90;7.93;;;9.20;99.90;;;;;;6240553;22;20080;-86
2023/02/19 08:55:31;;;;;;;21.23;7.30;;;9.20;99.90;;;;;;6245085;22;19995;-86
2023/02/19 08:57:57;;;;;;;20.85;7.45;;;9.20;99.90;;;;;;6243094;22;20018;-86
2023/02/19 09:00:22;;;;;;;15.43;6.45;;;9.30;99.90;;;;;;6246439;22;20004;-85
2023/02/19 09:02:49;;;;;;;18.10;5.68;;;9.30;99.90;;;;;;6246465;22;20004;-85
2023/02/19 09:05:15;;;;;;;11.43;4.22;;;9.40;99.90;;;;;;6273322;22;20008;-86
2023/02/19 09:07:41;;;;;;;12.95;4.63;;;9.30;99.90;;;;;;6250428;22;20031;-85
2023/02/19 09:10:11;;;;;;;11.93;4.90;;;9.20;99.90;;;;;;6249155;22;20003;-87
2023/02/19 09:12:37;;;;;;;8.02;4.03;;;9.20;99.90;;;;;;6249152;22;20114;-86
2023/02/19 09:15:04;;;;;;;9.75;4.38;;;9.00;99.90;;;;;;6246215;22;20043;-86
2023/02/19 09:17:29;;;;;;;14.20;5.22;;;9.00;99.90;;;;;;6274781;22;20449;-87
2023/02/19 09:19:55;;;;;;;11.65;4.95;;;9.00;99.90;;;;;;6247823;22;20012;-86
2023/02/19 09:22:20;;;;;;;10.57;5.10;;;9.00;99.90;;;;;;6248876;22;20349;-87
2023/02/19 09:24:46;;;;;;;10.45;5.15;;;9.10;99.90;;;;;;6250883;22;20007;-87
2023/02/19 09:27:17;;;;;;;12.25;5.35;;;9.10;99.90;;;;;;6248966;22;19996;-86
2023/02/19 09:29:43;;;;;;;12.00;5.28;;;9.10;99.90;;;;;;6250737;22;20027;-86
2023/02/19 09:32:09;;;;;;;11.75;6.40;;;9.10;99.90;;;;;;6275788;22;20007;-86
2023/02/19 09:34:34;;;;;;;11.85;5.38;;;9.10;99.90;;;;;;6251654;22;19999;-86
2023/02/19 09:37:00;;;;;;;15.32;6.88;;;9.10;99.90;;;;;;6248787;22;20017;-86
2023/02/19 09:39:26;;;;;;;15.75;6.55;;;9.10;99.90;;;;;;6249535;22;20053;-86
2023/02/19 09:41:55;;;;;;;14.25;6.78;;;9.00;99.90;;;;;;6250267;22;20012;-85
2023/02/19 09:44:28;;;;;;;16.30;6.93;;;9.00;99.90;;;;;;6249475;22;20023;-86
2023/02/19 09:46:55;;;;;;;16.35;7.25;;;9.10;99.90;;;;;;6249311;22;20007;-85
2023/02/19 09:49:28;;;;;;;16.67;7.40;;;9.00;99.90;;;;;;6248913;22;20434;-86
2023/02/19 09:52:06;;;;;;;19.95;8.05;;;9.10;99.90;;;;;;6244937;22;20568;-85
2023/02/19 09:54:33;;;;;;;15.05;7.05;;;9.00;99.90;;;;;;6274993;22;20082;-85
2023/02/19 09:57:02;;;;;;;17.02;7.10;;;9.00;99.90;;;;;;6248934;22;20041;-85
2023/02/19 09:59:39;;;;;;;16.13;6.93;;;9.00;99.90;;;;;;6276604;22;20334;-85
2023/02/19 10:02:14;;;;;;;18.35;7.47;;;9.00;99.90;;;;;;6247876;22;20026;-85
2023/02/19 10:04:42;;;;;;;14.65;6.95;;;9.10;99.90;;;;;;6247398;22;20008;-85
2023/02/19 10:07:17;;;;;;;17.90;8.07;;;9.10;99.90;;;;;;6247781;22;20007;-85
2023/02/19 10:10:12;;;;;;;17.27;6.68;;;9.20;99.90;;;;;;6274624;22;20086;-85
2023/02/19 10:12:46;;;;;;;16.10;7.40;;;9.20;99.90;;;;;;6193425;22;20000;-85
2023/02/19 10:15:19;;;;;;;11.20;6.30;;;9.20;99.90;;;;;;6247750;22;20075;-85
2023/02/19 10:17:45;;;;;;;13.98;7.00;;;9.30;99.90;;;;;;6248417;22;20113;-85
2023/02/19 10:20:21;;;;;;;15.45;6.25;;;9.30;99.90;;;;;;6246330;22;20493;-84
2023/02/19 10:22:47;;;;;;;10.75;5.43;;;9.30;99.90;;;;;;6246163;22;20376;-84
2023/02/19 10:25:15;;;;;;;18.42;6.07;;;9.30;99.90;;;;;;6247146;22;20000;-84
2023/02/19 10:27:41;;;;;;;13.73;6.75;;;9.30;99.90;;;;;;6248127;22;20037;-85
2023/02/19 10:30:18;;;;;;;11.85;5.93;;;9.30;99.90;;;;;;6248757;22;20010;-85
2023/02/19 10:33:02;;;;;;;14.65;6.30;;;9.30;99.90;;;;;;6248442;22;20475;-85
2023/02/19 10:35:28;;;;;;;17.42;6.60;;;9.30;99.90;;;;;;6247953;22;20007;-85
2023/02/19 10:37:55;;;;;;;14.65;6.30;;;9.30;99.90;;;;;;6248046;22;20008;-84
2023/02/19 10:40:26;;;;;;;13.18;5.95;;;9.40;99.90;;;;;;6244861;22;20008;-85
2023/02/19 10:42:57;;;;;;;14.63;6.80;;;9.40;99.90;;;;;;6245433;22;20054;-86
2023/02/19 10:45:37;;;;;;;14.02;5.90;;;9.50;99.90;;;;;;6273770;22;20544;-85
2023/02/19 10:48:04;;;;;;;12.68;5.78;;;9.80;99.90;;;;;;6247864;22;20298;-86
2023/02/19 10:50:33;;;;;;;11.95;5.75;;;10.00;99.90;;;;;;6243766;22;20106;-86
2023/02/19 10:53:00;;;;;;;12.05;5.55;;;10.10;99.90;;;;;;6249349;22;20008;-86
2023/02/19 10:55:30;;;;;;;10.95;5.25;;;10.10;99.90;;;;;;6249365;22;20003;-86
2023/02/19 10:57:56;;;;;;;13.60;5.38;;;10.00;99.90;;;;;;6250316;22;20094;-85
2023/02/19 11:00:29;;;;;;;11.70;5.82;;;10.00;99.90;;;;;;6274715;22;20023;-85
2023/02/19 11:03:22;;;;;;;12.93;4.20;;;10.00;99.90;;;;;;6277509;22;20000;-86
2023/02/19 11:06:01;;;;;;;10.52;4.15;;;9.90;99.90;;;;;;6249215;22;20004;-86
2023/02/19 11:08:27;;;;;;;8.10;3.95;;;9.90;99.90;;;;;;6248223;22;20008;-86
2023/02/19 11:10:53;;;;;;;11.90;4.88;;;9.80;99.90;;;;;;6248381;22;19999;-86
2023/02/19 11:13:32;;;;;;;14.98;4.47;;;9.80;99.90;;;;;;6275999;22;20026;-86
2023/02/19 11:15:58;;;;;;;7.20;4.00;;;9.80;99.90;;;;;;6276163;22;20563;-86
2023/02/19 11:18:31;;;;;;;11.63;3.58;;;9.80;99.90;;;;;;6248294;22;20027;-87
2023/02/19 11:21:01;;;;;;;8.00;3.15;;;9.80;99.90;;;;;;6276617;22;20015;-87
2023/02/19 11:23:34;;;;;;;12.30;4.57;;;9.80;99.90;;;;;;6249928;22;20042;-86
2023/02/19 11:26:05;;;;;;;10.57;3.20;;;9.80;99.90;;;;;;6252911;22;20038;-86
2023/02/19 11:28:34;;;;;;;8.43;2.72;;;9.90;99.90;;;;;;6277715;22;20315;-86
2023/02/19 11:31:13;;;;;;;7.38;4.07;;;9.90;99.90;;;;;;6249239;22;20000;-87
2023/02/19 11:34:03;;;;;;;14.75;4.55;;;9.90;99.90;;;;;;6275698;22;20004;-86
2023/02/19 11:36:34;;;;;;;11.90;4.72;;;10.00;99.90;;;;;;6253609;22;20326;-86
2023/02/19 11:39:12;;;;;;;10.20;3.40;;;10.00;99.90;;;;;;6247962;22;20027;-87
2023/02/19 11:41:49;;;;;;;12.10;4.05;;;10.00;99.90;;;;;;6249746;22;20000;-87
2023/02/19 11:44:42;;;;;;;12.35;4.40;;;10.00;99.90;;;;;;6249422;22;20091;-86
2023/02/19 11:47:44;;;;;;;14.07;4.57;;;10.00;99.90;;;;;;6250389;22;19996;-86
2023/02/19 11:50:35;;;;;;;10.82;3.67;;;10.00;99.90;;;;;;6250551;22;20008;-87
2023/02/19 11:53:23;;;;;;;13.48;3.15;;;9.90;99.90;;;;;;6277955;22;20122;-87
2023/02/19 11:56:18;;;;;;;10.27;3.38;;;9.90;99.90;;;;;;6250410;22;20084;-87
2023/02/19 11:58:57;;;;;;;9.63;2.97;;;9.90;99.90;;;;;;6251194;22;20030;-86
2023/02/19 12:01:29;;;;;;;9.68;2.90;;;9.90;99.90;;;;;;6275736;22;20322;-86
2023/02/19 12:04:10;;;;;;;8.90;2.88;;;9.90;99.90;;;;;;6250168;22;20460;-86
2023/02/19 12:07:10;;;;;;;6.40;2.05;;;9.90;99.90;;;;;;6278233;22;20071;-87
2023/02/19 12:10:03;;;;;;;8.48;2.42;;;9.90;99.90;;;;;;6278410;22;20026;-86
2023/02/19 12:13:03;;;;;;;6.78;1.15;;;9.90;99.90;;;;;;6248828;22;19996;-86
2023/02/19 12:15:53;;;;;;;3.60;0.95;;;9.80;99.90;;;;;;6274532;22;20007;-86
2023/02/19 12:18:58;;;;;;;3.97;0.93;;;9.70;99.90;;;;;;6274829;22;20008;-86
2023/02/19 12:21:43;;;;;;;3.78;1.08;;;9.80;99.90;;;;;;6216220;22;20419;-86
2023/02/19 12:24:14;;;;;;;1.45;0.50;;;9.90;99.90;;;;;;6247603;22;20375;-88
2023/02/19 12:26:58;;;;;;;2.13;0.60;;;10.00;99.90;;;;;;6247698;22;20019;-86
2023/02/19 12:29:30;;;;;;;2.60;0.60;;;10.10;99.90;;;;;;6246046;22;20226;-86
2023/02/19 12:32:05;;;;;;;1.63;0.40;;;10.20;99.90;;;;;;6247444;22;20008;-87
2023/02/19 12:34:36;;;;;;;2.33;0.40;;;10.40;99.90;;;;;;6272644;22;20010;-86
2023/02/19 12:37:20;;;;;;;3.03;0.50;;;10.40;99.90;;;;;;6247432;22;20003;-86
2023/02/19 12:40:00;;;;;;;3.38;0.85;;;10.30;99.90;;;;;;6273215;22;20000;-86
2023/02/19 12:42:48;;;;;;;3.75;1.95;;;10.30;99.90;;;;;;6270238;22;20004;-87
2023/02/19 12:45:38;;;;;;;6.28;2.75;;;10.40;99.90;;;;;;6244712;22;20379;-87
2023/02/19 12:48:27;;;;;;;4.80;3.40;;;10.50;99.90;;;;;;6248452;22;20008;-87
2023/02/19 12:51:03;;;;;;;4.55;3.13;;;10.50;99.90;;;;;;6250057;22;20004;-86
2023/02/19 12:53:36;;;;;;;4.40;2.25;;;10.60;99.90;;;;;;6251301;22;20007;-86
2023/02/19 12:56:07;;;;;;;5.45;1.38;;;10.60;99.90;;;;;;6276039;22;20448;-86
2023/02/19 12:58:51;;;;;;;3.78;1.20;;;10.60;99.90;;;;;;6250864;22;20461;-87
2023/02/19 13:01:22;;;;;;;3.78;1.13;;;10.50;99.90;;;;;;6276906;22;20011;-86
2023/02/19 13:04:10;;;;;;;5.18;1.55;;;10.50;99.90;;;;;;6275496;22;20118;-86
2023/02/19 13:06:44;;;;;;;5.88;1.13;;;10.50;99.90;;;;;;6249788;22;20003;-87
2023/02/19 13:09:30;;;;;;;1.95;0.85;;;10.50;99.90;;;;;;6251361;22;20345;-87
2023/02/19 13:12:22;;;;;;;3.92;0.90;;;10.40;99.90;;;;;;6280095;22;19992;-86
2023/02/19 13:15:10;;;;;;;4.15;0.80;;;10.40;99.90;;;;;;6231069;22;20333;-86
2023/02/19 13:17:48;;;;;;;3.00;0.95;;;10.50;99.90;;;;;;6188976;22;19996;-87
2023/02/19 13:20:29;;;;;;;4.43;1.65;;;10.60;99.90;;;;;;6250637;22;20345;-87
2023/02/19 13:26:23;;;;;;;5.13;2.25;;;10.60;99.90;;;;;;6278886;22;20018;-87
2023/02/19 13:29:27;;;;;;;3.78;1.88;;;10.60;99.90;;;;;;6251225;22;20003;-87
2023/02/19 13:32:08;;;;;;;3.45;1.70;;;10.60;99.90;;;;;;6251936;22;20006;-87